createdAt,value
2023-03-26T00:02:30.180Z,1.77
2023-03-26T00:05:32.916Z,2.30
2023-03-26T00:08:38.419Z,2.17
2023-03-26T00:11:41.198Z,1.50
2023-03-26T00:14:43.738Z,3.08
2023-03-26T00:17:46.737Z,2.35
2023-03-26T00:20:49.151Z,2.60
2023-03-26T00:23:53.592Z,2.50
2023-03-26T00:26:56.102Z,2.35
2023-03-26T00:30:00.132Z,1.55
2023-03-26T00:33:03.217Z,2.42
2023-03-26T00:36:10.114Z,2.03
2023-03-26T00:39:14.176Z,2.30
2023-03-26T00:42:16.885Z,3.20
2023-03-26T00:45:21.429Z,2.40
2023-03-26T00:48:34.487Z,2.97
2023-03-26T00:51:41.945Z,2.23
2023-03-26T00:54:54.610Z,1.83
2023-03-26T00:57:57.373Z,1.90
2023-03-26T01:01:03.528Z,1.85
2023-03-26T01:04:27.936Z,2.75
2023-03-26T01:07:31.452Z,2.90
2023-03-26T01:10:39.052Z,2.33
2023-03-26T01:14:09.666Z,2.47
2023-03-26T01:17:12.777Z,1.50
2023-03-26T01:20:30.502Z,1.60
2023-03-26T01:23:45.661Z,5.87
2023-03-26T01:27:01.547Z,1.65
2023-03-26T01:30:17.247Z,2.47
2023-03-26T01:33:30.302Z,1.65
2023-03-26T01:36:38.016Z,1.70
2023-03-26T01:40:28.356Z,2.47
2023-03-26T01:43:47.236Z,1.67
2023-03-26T01:46:52.433Z,2.67
2023-03-26T01:49:54.923Z,2.15
2023-03-26T01:52:57.781Z,3.28
2023-03-26T01:56:17.845Z,2.83
2023-03-26T01:59:47.492Z,2.15
2023-03-26T02:03:05.748Z,2.28
2023-03-26T02:06:45.895Z,2.17
2023-03-26T02:09:53.475Z,1.35
2023-03-26T02:12:58.081Z,2.43
2023-03-26T02:16:02.967Z,2.53
2023-03-26T02:19:05.490Z,1.70
2023-03-26T02:22:15.862Z,3.03
2023-03-26T02:25:21.235Z,1.45
2023-03-26T02:28:24.362Z,2.50
2023-03-26T02:31:27.064Z,2.35
2023-03-26T02:34:29.818Z,3.70
2023-03-26T02:37:33.911Z,3.70
2023-03-26T02:40:38.811Z,4.25
2023-03-26T02:43:41.560Z,3.70
2023-03-26T02:46:45.953Z,2.70
2023-03-26T02:49:49.394Z,2.35
2023-03-26T02:52:53.496Z,1.95
2023-03-26T02:56:01.067Z,2.30
2023-03-26T02:59:06.626Z,3.30
2023-03-26T03:02:09.187Z,2.08
2023-03-26T03:05:12.011Z,3.00
2023-03-26T03:08:14.481Z,3.90
2023-03-26T03:11:24.632Z,2.37
2023-03-26T03:14:31.699Z,3.03
2023-03-26T03:17:34.561Z,2.25
2023-03-26T03:20:37.774Z,2.30
2023-03-26T03:23:40.532Z,1.95
2023-03-26T03:26:45.675Z,2.70
2023-03-26T03:29:48.851Z,2.40
2023-03-26T03:32:54.700Z,2.55
2023-03-26T03:35:59.473Z,2.72
2023-03-26T03:39:02.883Z,4.00
2023-03-26T03:42:06.940Z,2.00
2023-03-26T03:45:10.385Z,2.73
2023-03-26T03:48:14.268Z,3.20
2023-03-26T03:51:18.571Z,2.75
2023-03-26T03:54:21.768Z,2.35
2023-03-26T03:57:27.396Z,3.45
2023-03-26T04:00:31.013Z,2.40
2023-03-26T04:03:38.832Z,2.35
2023-03-26T04:06:42.737Z,2.75
2023-03-26T04:09:46.274Z,2.08
2023-03-26T04:12:49.490Z,3.72
2023-03-26T04:15:53.075Z,2.07
2023-03-26T04:18:57.474Z,2.15
2023-03-26T04:22:03.167Z,2.10
2023-03-26T04:25:07.700Z,2.00
2023-03-26T04:28:15.900Z,2.95
2023-03-26T04:31:24.628Z,2.43
2023-03-26T04:34:31.033Z,1.92
2023-03-26T04:37:42.130Z,2.20
2023-03-26T04:40:47.467Z,3.58
2023-03-26T04:43:50.902Z,2.72
2023-03-26T04:46:55.267Z,3.60
2023-03-26T04:49:58.208Z,3.92
2023-03-26T04:53:01.020Z,3.00
2023-03-26T04:56:17.126Z,2.72
2023-03-26T04:59:34.868Z,4.62
2023-03-26T05:02:40.013Z,2.80
2023-03-26T05:05:43.306Z,4.60
2023-03-26T05:08:46.341Z,2.85
2023-03-26T05:11:53.460Z,2.62
2023-03-26T05:14:56.553Z,2.62
2023-03-26T05:18:00.688Z,2.40
2023-03-26T05:21:03.780Z,3.17
2023-03-26T05:24:07.190Z,2.92
2023-03-26T05:27:15.406Z,3.22
2023-03-26T05:30:21.132Z,4.70
2023-03-26T05:33:23.879Z,2.90
2023-03-26T05:36:30.718Z,2.22
2023-03-26T05:39:35.651Z,10.00
2023-03-26T05:42:41.777Z,3.80
2023-03-26T05:45:47.346Z,2.67
2023-03-26T05:48:52.130Z,3.67
2023-03-26T05:51:55.517Z,3.22
2023-03-26T05:54:59.679Z,3.05
2023-03-26T05:58:13.942Z,2.55
2023-03-26T06:01:25.681Z,2.35
2023-03-26T06:04:29.893Z,3.30
2023-03-26T06:07:33.991Z,3.22
2023-03-26T06:10:39.630Z,2.90
2023-03-26T06:13:43.162Z,2.47
2023-03-26T06:16:46.204Z,2.50
2023-03-26T06:19:49.052Z,2.93
2023-03-26T06:22:53.132Z,2.95
2023-03-26T06:25:56.204Z,3.37
2023-03-26T06:28:59.926Z,4.50
2023-03-26T06:32:16.343Z,3.00
2023-03-26T06:35:22.021Z,5.80
2023-03-26T06:38:25.468Z,3.22
2023-03-26T06:41:29.830Z,4.50
2023-03-26T06:44:33.050Z,6.10
2023-03-26T06:47:37.682Z,4.30
2023-03-26T06:50:42.234Z,3.47
2023-03-26T06:53:45.330Z,3.72
2023-03-26T06:56:51.677Z,3.22
2023-03-26T06:59:54.997Z,2.35
2023-03-26T07:03:06.263Z,3.05
2023-03-26T07:06:20.416Z,3.63
2023-03-26T07:09:26.363Z,3.17
2023-03-26T07:12:31.001Z,2.40
2023-03-26T07:15:34.045Z,3.05
2023-03-26T07:18:38.186Z,3.80
2023-03-26T07:21:42.186Z,3.07
2023-03-26T07:24:46.228Z,2.60
2023-03-26T07:28:01.150Z,2.62
2023-03-26T07:31:39.739Z,2.60
2023-03-26T07:34:51.959Z,2.25
2023-03-26T07:38:01.197Z,3.23
2023-03-26T07:41:35.027Z,3.12
2023-03-26T07:44:48.417Z,3.70
2023-03-26T07:47:53.687Z,4.68
2023-03-26T07:50:58.628Z,3.10
2023-03-26T07:54:04.332Z,3.73
2023-03-26T07:57:28.540Z,4.20
2023-03-26T08:00:41.496Z,3.58
2023-03-26T08:03:51.083Z,2.42
2023-03-26T08:07:05.245Z,3.45
2023-03-26T08:10:23.660Z,3.20
2023-03-26T08:13:57.582Z,3.95
2023-03-26T08:17:36.038Z,3.83
2023-03-26T08:20:49.092Z,2.65
2023-03-26T08:24:01.603Z,3.33
2023-03-26T08:27:16.268Z,3.70
2023-03-26T08:30:26.983Z,3.85
2023-03-26T08:33:30.775Z,4.15
2023-03-26T08:36:33.682Z,4.50
2023-03-26T08:39:38.920Z,3.53
2023-03-26T08:43:21.807Z,5.93
2023-03-26T08:46:46.494Z,3.28
2023-03-26T08:50:16.362Z,6.15
2023-03-26T08:53:56.266Z,6.62
2023-03-26T08:57:20.497Z,3.95
2023-03-26T09:00:38.326Z,5.50
2023-03-26T09:03:41.642Z,4.07
2023-03-26T09:07:12.219Z,3.50
2023-03-26T09:10:35.904Z,4.60
2023-03-26T09:14:21.483Z,6.00
2023-03-26T09:18:12.319Z,3.10
2023-03-26T09:21:47.929Z,4.10
2023-03-26T09:24:52.372Z,4.20
2023-03-26T09:28:12.869Z,5.37
2023-03-26T09:31:31.965Z,4.28
2023-03-26T09:34:45.251Z,4.33
2023-03-26T09:38:11.365Z,3.70
2023-03-26T09:41:27.252Z,3.47
2023-03-26T09:44:54.973Z,3.62
2023-03-26T09:48:14.051Z,3.55
2023-03-26T09:51:39.819Z,4.43
2023-03-26T09:55:11.776Z,3.00
2023-03-26T09:58:37.426Z,2.78
2023-03-26T10:01:56.815Z,4.78
2023-03-26T10:05:42.652Z,4.90
2023-03-26T10:08:51.415Z,4.07
2023-03-26T10:12:10.270Z,3.28
2023-03-26T10:15:41.329Z,3.97
2023-03-26T10:18:56.591Z,4.50
2023-03-26T10:22:20.812Z,2.78
2023-03-26T10:25:32.606Z,4.43
2023-03-26T10:28:41.325Z,4.35
2023-03-26T10:32:09.840Z,3.03
2023-03-26T10:35:38.584Z,3.53
2023-03-26T10:39:37.393Z,2.60
2023-03-26T10:43:14.752Z,3.87
2023-03-26T10:46:34.411Z,2.90
2023-03-26T10:49:50.356Z,4.37
2023-03-26T10:53:20.787Z,2.92
2023-03-26T10:56:38.391Z,3.20
2023-03-26T10:59:41.233Z,3.50
2023-03-26T11:03:32.069Z,3.10
2023-03-26T11:06:45.755Z,5.35
2023-03-26T11:09:54.970Z,3.37
2023-03-26T11:13:22.574Z,4.40
2023-03-26T11:16:50.680Z,3.70
2023-03-26T11:20:41.252Z,3.78
2023-03-26T11:23:46.481Z,3.67
2023-03-26T11:27:15.385Z,3.70
2023-03-26T11:30:34.418Z,3.22
2023-03-26T11:33:45.590Z,4.00
2023-03-26T11:36:54.441Z,3.45
2023-03-26T11:39:59.362Z,4.35
2023-03-26T11:43:09.402Z,5.30
2023-03-26T11:46:14.759Z,3.30
2023-03-26T11:49:20.346Z,3.33
2023-03-26T11:52:23.352Z,3.37
2023-03-26T11:55:27.679Z,2.90
2023-03-26T11:58:38.427Z,3.40
2023-03-26T12:01:56.012Z,3.87
2023-03-26T12:05:19.070Z,3.20
2023-03-26T12:08:30.388Z,3.33
2023-03-26T12:11:35.859Z,2.50
2023-03-26T12:14:43.228Z,4.03
2023-03-26T12:17:48.289Z,3.10
2023-03-26T12:21:03.570Z,3.60
2023-03-26T12:24:08.527Z,2.95
2023-03-26T12:27:30.951Z,3.47
2023-03-26T12:30:38.063Z,4.10
2023-03-26T12:33:40.747Z,2.50
2023-03-26T12:36:55.792Z,3.37
2023-03-26T12:40:28.944Z,3.20
2023-03-26T12:44:55.429Z,3.00
2023-03-26T12:47:57.244Z,4.03
2023-03-26T12:50:43.388Z,4.97
2023-03-26T12:54:03.196Z,4.07
2023-03-26T12:57:18.397Z,3.75
2023-03-26T13:00:31.680Z,2.67
2023-03-26T13:03:41.835Z,4.20
2023-03-26T13:06:59.998Z,4.22
2023-03-26T13:10:33.827Z,4.80
2023-03-26T13:13:56.471Z,3.65
2023-03-26T13:17:16.818Z,3.72
2023-03-26T13:20:35.131Z,2.95
2023-03-26T13:24:08.003Z,2.40
2023-03-26T13:27:30.387Z,4.40
2023-03-26T13:30:55.575Z,3.37
2023-03-26T13:34:11.035Z,2.90
2023-03-26T13:37:23.002Z,3.67
2023-03-26T13:40:44.826Z,3.00
2023-03-26T13:44:00.067Z,3.37
2023-03-26T13:47:13.331Z,3.58
2023-03-26T13:50:23.880Z,2.55
2023-03-26T13:53:34.985Z,2.58
2023-03-26T13:56:50.941Z,3.50
2023-03-26T14:00:12.804Z,1.80
2023-03-26T14:03:53.077Z,2.97
2023-03-26T14:07:18.066Z,2.58
2023-03-26T14:10:26.593Z,2.25
2023-03-26T14:13:47.721Z,1.90
2023-03-26T14:16:58.513Z,2.73
2023-03-26T14:20:22.613Z,2.92
2023-03-26T14:23:38.991Z,2.25
2023-03-26T14:27:11.770Z,2.30
2023-03-26T14:30:33.476Z,1.92
2023-03-26T14:33:50.618Z,2.67
2023-03-26T14:37:30.098Z,3.20
2023-03-26T14:41:02.137Z,2.03
2023-03-26T14:44:07.421Z,2.90
2023-03-26T14:47:21.592Z,2.28
2023-03-26T14:50:36.008Z,4.57
2023-03-26T14:53:44.166Z,2.33
2023-03-26T14:57:09.827Z,1.67
2023-03-26T15:00:34.657Z,1.92
2023-03-26T15:04:02.253Z,2.20
2023-03-26T15:07:41.370Z,2.33
2023-03-26T15:11:22.036Z,2.45
2023-03-26T15:14:36.694Z,3.17
2023-03-26T15:18:15.933Z,2.70
2023-03-26T15:21:39.801Z,2.92
2023-03-26T15:24:48.583Z,1.83
2023-03-26T15:27:52.019Z,2.37
2023-03-26T15:31:43.349Z,2.15
2023-03-26T15:35:02.625Z,3.12
2023-03-26T15:38:13.924Z,3.03
2023-03-26T15:41:25.767Z,1.87
2023-03-26T15:44:55.309Z,2.58
2023-03-26T15:48:12.943Z,3.90
2023-03-26T15:51:32.104Z,1.87
2023-03-26T15:54:59.450Z,2.53
2023-03-26T15:58:10.182Z,2.33
2023-03-26T16:01:21.427Z,2.95
2023-03-26T16:04:57.591Z,3.00
2023-03-26T16:08:08.666Z,2.85
2023-03-26T16:11:12.783Z,2.97
2023-03-26T16:14:23.292Z,3.00
2023-03-26T16:17:26.992Z,3.87
2023-03-26T16:20:35.112Z,3.00
2023-03-26T16:23:47.657Z,2.25
2023-03-26T16:27:08.038Z,3.67
2023-03-26T16:30:30.428Z,4.37
2023-03-26T16:33:39.468Z,2.85
2023-03-26T16:36:44.191Z,2.97
2023-03-26T16:39:47.378Z,2.87
2023-03-26T16:43:21.810Z,3.22
2023-03-26T16:46:24.133Z,4.20
2023-03-26T16:49:32.604Z,3.37
2023-03-26T16:52:47.752Z,5.03
2023-03-26T16:56:13.820Z,4.50
2023-03-26T16:59:37.363Z,6.55
2023-03-26T17:03:13.029Z,6.50
2023-03-26T17:06:46.443Z,6.80
2023-03-26T17:10:16.948Z,7.03
2023-03-26T17:13:54.734Z,7.35
2023-03-26T17:17:22.170Z,6.57
2023-03-26T17:20:40.883Z,4.97
2023-03-26T17:24:04.140Z,8.45
2023-03-26T17:27:23.812Z,7.85
2023-03-26T17:30:40.477Z,8.30
2023-03-26T17:33:43.435Z,6.60
2023-03-26T17:36:56.449Z,6.57
2023-03-26T17:40:02.049Z,8.27
2023-03-26T17:43:11.188Z,7.75
2023-03-26T17:46:43.553Z,6.07
2023-03-26T17:49:51.166Z,6.78
2023-03-26T17:53:03.156Z,6.70
2023-03-26T17:56:14.786Z,6.82
2023-03-26T17:59:26.729Z,6.05
2023-03-26T18:02:42.839Z,7.28
2023-03-26T18:05:47.055Z,7.20
2023-03-26T18:09:05.666Z,8.90
2023-03-26T18:12:15.016Z,5.82
2023-03-26T18:15:44.947Z,6.37
2023-03-26T18:18:59.175Z,5.57
2023-03-26T18:22:07.355Z,6.20
2023-03-26T18:25:22.272Z,7.70
2023-03-26T18:28:34.970Z,9.10
2023-03-26T18:31:42.439Z,7.22
2023-03-26T18:34:53.514Z,7.20
2023-03-26T18:38:03.438Z,6.15
2023-03-26T18:41:08.357Z,7.57
2023-03-26T18:44:18.005Z,9.02
2023-03-26T18:47:21.190Z,6.50
2023-03-26T18:50:31.051Z,7.00
2023-03-26T18:53:41.287Z,6.72
2023-03-26T18:56:47.533Z,6.83
2023-03-26T18:59:52.712Z,9.30
2023-03-26T19:03:06.009Z,7.78
2023-03-26T19:06:10.437Z,6.95
2023-03-26T19:09:30.392Z,5.65
2023-03-26T19:12:35.742Z,6.20
2023-03-26T19:15:38.549Z,10.57
2023-03-26T19:18:44.208Z,7.68
2023-03-26T19:21:49.502Z,6.00
2023-03-26T19:24:58.222Z,8.63
2023-03-26T19:28:01.733Z,6.27
2023-03-26T19:31:08.884Z,8.35
2023-03-26T19:34:21.595Z,8.10
2023-03-26T19:37:26.974Z,9.38
2023-03-26T19:40:34.309Z,8.88
2023-03-26T19:43:36.913Z,9.93
2023-03-26T19:46:53.539Z,8.48
2023-03-26T19:49:59.062Z,11.65
2023-03-26T19:53:18.923Z,8.90
2023-03-26T19:56:22.959Z,9.30
2023-03-26T19:59:26.448Z,6.90
2023-03-26T20:02:28.998Z,9.85
2023-03-26T20:05:34.648Z,6.43
2023-03-26T20:08:37.139Z,9.35
2023-03-26T20:11:40.853Z,6.45
2023-03-26T20:14:45.354Z,6.87
2023-03-26T20:17:52.395Z,8.07
2023-03-26T20:20:55.200Z,10.43
2023-03-26T20:24:01.812Z,6.50
2023-03-26T20:27:04.752Z,8.70
2023-03-26T20:30:09.218Z,9.07
2023-03-26T20:33:27.062Z,8.07
2023-03-26T20:36:34.173Z,7.93
2023-03-26T20:39:37.852Z,7.18
2023-03-26T20:42:42.619Z,7.60
2023-03-26T20:45:46.030Z,8.30
2023-03-26T20:48:48.828Z,7.03
2023-03-26T20:51:51.251Z,7.05
2023-03-26T20:54:55.147Z,8.57
2023-03-26T20:57:57.564Z,8.60
2023-03-26T21:01:01.743Z,7.73
2023-03-26T21:04:04.602Z,7.75
2023-03-26T21:07:17.539Z,6.90
2023-03-26T21:10:21.854Z,10.00
2023-03-26T21:13:39.094Z,10.25
2023-03-26T21:16:42.144Z,8.33
2023-03-26T21:19:46.021Z,6.70
2023-03-26T21:23:16.722Z,6.95
2023-03-26T21:26:41.660Z,7.62
2023-03-26T21:29:44.588Z,7.20
2023-03-26T21:32:48.005Z,6.40
2023-03-26T21:35:51.906Z,7.82
2023-03-26T21:38:55.794Z,6.20
2023-03-26T21:42:05.304Z,4.65
2023-03-26T21:45:09.486Z,3.62
2023-03-26T21:48:12.730Z,4.40
2023-03-26T21:51:18.981Z,4.37
2023-03-26T21:54:21.478Z,2.67
2023-03-26T21:57:42.502Z,2.50
2023-03-26T22:01:03.772Z,3.20
2023-03-26T22:04:10.993Z,2.47
2023-03-26T22:07:19.267Z,2.22
2023-03-26T22:10:22.551Z,2.75
2023-03-26T22:13:25.289Z,3.55
2023-03-26T22:16:28.046Z,3.30
2023-03-26T22:19:30.627Z,3.50
2023-03-26T22:22:33.361Z,2.85
2023-03-26T22:25:36.158Z,3.70
2023-03-26T22:28:38.923Z,2.65
2023-03-26T22:31:42.071Z,3.08
2023-03-26T22:34:45.123Z,4.57
2023-03-26T22:37:47.485Z,4.37
2023-03-26T22:40:59.179Z,2.45
2023-03-26T22:44:12.908Z,3.47
2023-03-26T22:47:22.567Z,3.33
2023-03-26T22:50:26.091Z,4.80
2023-03-26T22:53:29.596Z,3.95
2023-03-26T22:56:32.170Z,3.55
2023-03-26T22:59:35.052Z,5.87
2023-03-26T23:02:37.459Z,3.75
2023-03-26T23:05:40.965Z,3.83
2023-03-26T23:08:43.359Z,3.58
2023-03-26T23:11:46.082Z,3.33
2023-03-26T23:14:52.408Z,3.78
2023-03-26T23:17:55.406Z,4.37
2023-03-26T23:20:58.773Z,3.53
2023-03-26T23:24:01.645Z,3.55
2023-03-26T23:27:04.889Z,3.28
2023-03-26T23:30:10.896Z,3.58
2023-03-26T23:33:13.604Z,3.80
2023-03-26T23:36:18.926Z,2.80
2023-03-26T23:39:21.733Z,3.17
2023-03-26T23:42:28.602Z,3.17
2023-03-26T23:45:32.604Z,3.83
2023-03-26T23:48:35.434Z,4.60
2023-03-26T23:51:37.961Z,4.43
2023-03-26T23:54:42.494Z,2.92
2023-03-26T23:57:45.253Z,3.70
